createdAt,value
2018-11-06T00:01:09.177Z,5.43
2018-11-06T00:03:42.489Z,4.97
2018-11-06T00:06:10.142Z,5.33
2018-11-06T00:08:37.693Z,4.90
2018-11-06T00:11:06.300Z,6.17
2018-11-06T00:13:33.939Z,5.00
2018-11-06T00:16:01.469Z,4.90
2018-11-06T00:18:29.102Z,6.37
2018-11-06T00:20:56.781Z,5.67
2018-11-06T00:23:24.509Z,4.83
2018-11-06T00:25:52.101Z,6.03
2018-11-06T00:28:19.609Z,5.50
2018-11-06T00:30:47.187Z,4.30
2018-11-06T00:33:14.810Z,4.47
2018-11-06T00:35:42.309Z,7.70
2018-11-06T00:38:09.824Z,4.63
2018-11-06T00:40:37.381Z,4.33
2018-11-06T00:43:05.046Z,5.13
2018-11-06T00:45:32.570Z,4.47
2018-11-06T00:48:00.097Z,4.20
2018-11-06T00:50:27.754Z,3.97
2018-11-06T00:52:55.374Z,4.53
2018-11-06T00:55:22.895Z,4.30
2018-11-06T00:57:50.477Z,4.60
2018-11-06T01:00:18.797Z,4.30
2018-11-06T01:02:46.978Z,4.90
2018-11-06T01:05:15.404Z,4.17
2018-11-06T01:07:43.898Z,4.03
2018-11-06T01:10:11.534Z,4.13
2018-11-06T01:12:39.437Z,5.47
2018-11-06T01:15:08.879Z,4.33
2018-11-06T01:17:36.542Z,4.30
2018-11-06T01:20:05.549Z,5.87
2018-11-06T01:22:33.149Z,5.67
2018-11-06T01:25:01.121Z,5.23
2018-11-06T01:27:28.697Z,4.50
2018-11-06T01:29:56.249Z,4.23
2018-11-06T01:32:23.870Z,4.73
2018-11-06T01:34:51.395Z,4.23
2018-11-06T01:37:19.042Z,4.70
2018-11-06T01:39:46.568Z,4.00
2018-11-06T01:42:14.259Z,4.70
2018-11-06T01:44:42.038Z,4.07
2018-11-06T01:47:09.691Z,4.53
2018-11-06T01:49:37.241Z,5.00
2018-11-06T01:52:04.765Z,4.80
2018-11-06T01:54:32.393Z,4.13
2018-11-06T01:57:00.019Z,4.07
2018-11-06T01:59:27.750Z,4.40
2018-11-06T02:01:55.281Z,5.40
2018-11-06T02:04:22.909Z,3.90
2018-11-06T02:06:50.542Z,4.40
2018-11-06T02:09:18.178Z,5.50
2018-11-06T02:11:45.706Z,4.83
2018-11-06T02:14:13.450Z,4.67
2018-11-06T02:16:41.091Z,5.37
2018-11-06T02:19:08.625Z,4.80
2018-11-06T02:21:36.271Z,4.77
2018-11-06T02:24:04.133Z,4.77
2018-11-06T02:26:31.748Z,4.27
2018-11-06T02:28:59.378Z,5.20
2018-11-06T02:31:26.922Z,4.10
2018-11-06T02:33:54.587Z,4.23
2018-11-06T02:36:22.281Z,4.17
2018-11-06T02:38:49.897Z,4.90
2018-11-06T02:41:17.539Z,4.13
2018-11-06T02:43:45.062Z,4.37
2018-11-06T02:46:12.701Z,5.30
2018-11-06T02:48:40.330Z,5.10
2018-11-06T02:51:07.870Z,4.03
2018-11-06T02:53:35.421Z,6.20
2018-11-06T02:56:03.216Z,4.93
2018-11-06T02:58:30.669Z,3.53
2018-11-06T03:00:58.222Z,4.60
2018-11-06T03:03:25.855Z,4.27
2018-11-06T03:05:53.373Z,4.67
2018-11-06T03:08:21.102Z,3.70
2018-11-06T03:10:48.758Z,3.90
2018-11-06T03:13:16.319Z,3.73
2018-11-06T03:15:43.842Z,4.17
2018-11-06T03:18:11.471Z,4.00
2018-11-06T03:20:39.073Z,3.60
2018-11-06T03:23:06.673Z,3.80
2018-11-06T03:25:34.301Z,4.00
2018-11-06T03:28:01.884Z,3.77
2018-11-06T03:30:29.494Z,3.67
2018-11-06T03:32:57.223Z,3.67
2018-11-06T03:35:24.794Z,4.63
2018-11-06T03:37:52.338Z,3.63
2018-11-06T03:40:19.958Z,3.97
2018-11-06T03:42:47.602Z,3.30
2018-11-06T03:45:15.122Z,3.20
2018-11-06T03:47:42.658Z,4.43
2018-11-06T03:50:11.520Z,3.93
2018-11-06T03:52:39.026Z,3.73
2018-11-06T03:55:06.709Z,4.80
2018-11-06T03:57:34.356Z,4.10
2018-11-06T04:00:01.914Z,4.00
2018-11-06T04:02:29.549Z,3.70
2018-11-06T04:04:57.090Z,4.80
2018-11-06T04:07:24.725Z,3.30
2018-11-06T04:09:52.350Z,3.50
2018-11-06T04:12:19.990Z,4.17
2018-11-06T04:14:47.642Z,4.00
2018-11-06T04:17:15.174Z,4.63
2018-11-06T04:19:42.790Z,4.27
2018-11-06T04:24:56.753Z,4.57
2018-11-06T04:27:24.261Z,4.43
2018-11-06T04:29:51.895Z,3.97
2018-11-06T04:32:19.437Z,3.80
2018-11-06T04:34:46.946Z,4.23
2018-11-06T04:37:14.571Z,5.03
2018-11-06T04:39:42.094Z,3.73
2018-11-06T04:42:09.637Z,3.87
2018-11-06T04:44:37.165Z,3.70
2018-11-06T04:47:05.190Z,4.43
2018-11-06T04:49:32.725Z,3.80
2018-11-06T04:52:00.310Z,4.10
2018-11-06T04:54:27.821Z,5.90
2018-11-06T04:56:55.355Z,5.03
2018-11-06T04:59:22.990Z,4.83
2018-11-06T05:01:50.662Z,4.40
2018-11-06T05:04:18.157Z,4.30
2018-11-06T05:06:45.682Z,4.63
2018-11-06T05:09:13.303Z,4.20
2018-11-06T05:11:40.845Z,4.63
2018-11-06T05:14:08.506Z,5.10
2018-11-06T05:16:36.141Z,3.53
2018-11-06T05:19:03.710Z,4.90
2018-11-06T05:21:31.347Z,5.23
2018-11-06T05:23:58.862Z,5.30
2018-11-06T05:26:26.510Z,4.53
2018-11-06T05:28:54.089Z,4.07
2018-11-06T05:31:21.620Z,5.07
2018-11-06T05:33:49.138Z,5.10
2018-11-06T05:36:16.662Z,4.37
2018-11-06T05:38:44.248Z,3.80
2018-11-06T05:41:11.854Z,4.30
2018-11-06T05:43:39.570Z,4.33
2018-11-06T05:46:07.218Z,4.87
2018-11-06T05:48:34.861Z,4.93
2018-11-06T05:51:02.404Z,5.60
2018-11-06T05:53:29.902Z,5.50
2018-11-06T05:55:57.426Z,4.70
2018-11-06T05:58:24.957Z,4.87
2018-11-06T06:00:52.486Z,4.57
2018-11-06T06:03:20.130Z,5.70
2018-11-06T06:05:47.678Z,5.00
2018-11-06T06:08:15.188Z,5.40
2018-11-06T06:10:42.799Z,6.20
2018-11-06T06:13:10.473Z,5.83
2018-11-06T06:15:38.022Z,5.00
2018-11-06T06:18:05.661Z,5.47
2018-11-06T06:20:33.241Z,5.20
2018-11-06T06:23:00.863Z,4.60
2018-11-06T06:25:28.393Z,6.17
2018-11-06T06:27:56.021Z,5.63
2018-11-06T06:30:35.756Z,4.40
2018-11-06T06:33:03.282Z,4.10
2018-11-06T06:35:30.882Z,4.63
2018-11-06T06:37:58.389Z,6.40
2018-11-06T06:40:25.907Z,9.23
2018-11-06T06:42:53.413Z,5.73
2018-11-06T06:45:20.940Z,5.07
2018-11-06T06:47:48.457Z,4.80
2018-11-06T06:50:17.832Z,4.60
2018-11-06T06:52:45.870Z,5.43
2018-11-06T06:55:14.195Z,4.60
2018-11-06T06:57:42.665Z,5.57
2018-11-06T07:00:14.637Z,6.10
2018-11-06T07:02:42.244Z,5.30
2018-11-06T07:05:11.497Z,6.17
2018-11-06T07:07:39.913Z,5.70
2018-11-06T07:10:08.193Z,5.37
2018-11-06T07:12:36.197Z,4.73
2018-11-06T07:15:04.302Z,5.33
2018-11-06T07:17:31.818Z,4.70
2018-11-06T07:19:59.310Z,5.03
2018-11-06T07:22:26.809Z,4.10
2018-11-06T07:24:54.350Z,4.97
2018-11-06T07:27:21.875Z,4.73
2018-11-06T07:29:49.558Z,4.77
2018-11-06T07:32:17.109Z,6.47
2018-11-06T07:34:44.743Z,4.93
2018-11-06T07:37:12.391Z,4.17
2018-11-06T07:39:39.893Z,4.40
2018-11-06T07:42:07.469Z,4.63
2018-11-06T07:44:34.977Z,4.27
2018-11-06T07:47:02.673Z,3.73
2018-11-06T07:49:30.233Z,4.10
2018-11-06T07:51:57.766Z,4.70
2018-11-06T07:54:25.353Z,4.57
2018-11-06T07:56:52.948Z,5.53
2018-11-06T07:59:20.466Z,3.70
2018-11-06T08:01:47.965Z,3.57
2018-11-06T08:04:15.614Z,3.53
2018-11-06T08:06:43.114Z,3.83
2018-11-06T08:09:10.857Z,3.93
2018-11-06T08:11:39.177Z,3.70
2018-11-06T08:14:06.770Z,3.60
2018-11-06T08:16:34.371Z,3.50
2018-11-06T08:19:01.992Z,3.70
2018-11-06T08:21:29.513Z,3.73
2018-11-06T08:23:57.074Z,3.60
2018-11-06T08:26:24.565Z,4.57
2018-11-06T08:28:52.166Z,3.30
2018-11-06T08:31:19.855Z,3.83
2018-11-06T08:33:47.210Z,4.97
2018-11-06T08:36:14.798Z,6.47
2018-11-06T08:38:42.383Z,4.63
2018-11-06T08:41:09.909Z,3.63
2018-11-06T08:43:37.445Z,5.33
2018-11-06T08:46:05.137Z,3.73
2018-11-06T08:48:32.639Z,4.90
2018-11-06T08:51:00.215Z,4.53
2018-11-06T08:53:27.890Z,4.90
2018-11-06T08:55:55.381Z,4.23
2018-11-06T08:58:22.919Z,3.83
2018-11-06T09:00:50.483Z,4.00
2018-11-06T09:03:17.990Z,4.43
2018-11-06T09:05:45.514Z,4.17
2018-11-06T09:08:13.018Z,3.33
2018-11-06T09:10:40.598Z,4.27
2018-11-06T09:13:08.123Z,4.13
2018-11-06T09:15:35.653Z,3.70
2018-11-06T09:18:03.262Z,3.90
2018-11-06T09:20:30.777Z,4.00
2018-11-06T09:22:58.387Z,3.90
2018-11-06T09:25:26.053Z,3.47
2018-11-06T09:27:53.586Z,3.33
2018-11-06T09:30:21.525Z,3.07
2018-11-06T09:32:49.191Z,3.40
2018-11-06T09:35:16.787Z,3.83
2018-11-06T09:37:44.562Z,3.73
2018-11-06T09:40:13.361Z,4.17
2018-11-06T09:42:40.986Z,3.90
2018-11-06T09:45:08.961Z,3.70
2018-11-06T09:47:36.597Z,3.87
2018-11-06T09:50:05.006Z,3.70
2018-11-06T09:52:32.519Z,3.80
2018-11-06T09:55:00.175Z,3.13
2018-11-06T09:57:27.676Z,3.37
2018-11-06T09:59:55.315Z,8.07
2018-11-06T10:02:22.876Z,3.70
2018-11-06T10:04:50.377Z,4.77
2018-11-06T10:07:18.224Z,4.73
2018-11-06T10:09:45.625Z,3.40
2018-11-06T10:12:13.279Z,3.53
2018-11-06T10:14:40.778Z,3.57
2018-11-06T10:17:08.447Z,3.37
2018-11-06T10:19:35.973Z,4.40
2018-11-06T10:22:03.822Z,3.67
2018-11-06T10:24:32.161Z,3.50
2018-11-06T10:26:59.814Z,6.07
2018-11-06T10:29:27.418Z,3.33
2018-11-06T10:31:55.011Z,4.47
2018-11-06T10:34:22.605Z,4.97
2018-11-06T10:36:50.262Z,3.07
2018-11-06T10:39:17.785Z,3.37
2018-11-06T10:41:45.358Z,3.37
2018-11-06T10:44:12.875Z,4.37
2018-11-06T10:46:40.410Z,3.57
2018-11-06T10:49:08.904Z,3.60
2018-11-06T10:51:36.410Z,4.17
2018-11-06T10:54:04.133Z,4.17
2018-11-06T10:56:31.768Z,4.10
2018-11-06T10:58:59.290Z,3.47
2018-11-06T11:01:32.370Z,5.30
2018-11-06T11:04:05.534Z,3.00
2018-11-06T11:06:33.053Z,3.87
2018-11-06T11:09:00.591Z,3.17
2018-11-06T11:11:28.172Z,4.20
2018-11-06T11:13:55.665Z,3.23
2018-11-06T11:16:23.154Z,3.40
2018-11-06T11:18:50.774Z,3.50
2018-11-06T11:21:18.294Z,3.20
2018-11-06T11:23:45.801Z,3.43
2018-11-06T11:26:13.333Z,2.93
2018-11-06T11:28:40.842Z,3.57
2018-11-06T11:31:08.337Z,5.60
2018-11-06T11:33:35.843Z,4.33
2018-11-06T11:36:03.382Z,3.10
2018-11-06T11:38:30.930Z,2.60
2018-11-06T11:40:58.431Z,2.97
2018-11-06T11:43:25.937Z,3.23
2018-11-06T11:45:53.471Z,3.10
2018-11-06T11:48:21.063Z,3.23
2018-11-06T11:50:48.648Z,6.27
2018-11-06T11:53:16.222Z,3.20
2018-11-06T11:55:43.765Z,2.77
2018-11-06T11:58:11.358Z,2.67
2018-11-06T12:00:39.530Z,2.43
2018-11-06T12:03:07.484Z,2.40
2018-11-06T12:05:35.053Z,3.33
2018-11-06T12:08:02.567Z,2.70
2018-11-06T12:10:30.137Z,3.20
2018-11-06T12:12:57.771Z,3.43
2018-11-06T12:15:25.281Z,2.97
2018-11-06T12:17:52.781Z,2.47
2018-11-06T12:20:20.414Z,2.63
2018-11-06T12:22:47.956Z,2.20
2018-11-06T12:25:15.861Z,2.10
2018-11-06T12:27:43.076Z,2.37
2018-11-06T12:30:12.531Z,2.13
2018-11-06T12:32:40.301Z,3.40
2018-11-06T12:35:08.653Z,2.57
2018-11-06T12:37:36.389Z,3.10
2018-11-06T12:40:04.331Z,1.97
2018-11-06T12:42:31.831Z,2.40
2018-11-06T12:44:59.355Z,2.23
2018-11-06T12:47:26.958Z,2.93
2018-11-06T12:49:54.682Z,2.60
2018-11-06T12:52:22.186Z,3.83
2018-11-06T12:54:49.701Z,1.97
2018-11-06T12:57:17.297Z,2.20
2018-11-06T12:59:44.897Z,2.73
2018-11-06T13:02:12.397Z,2.40
2018-11-06T13:04:39.914Z,2.33
2018-11-06T13:07:07.530Z,2.27
2018-11-06T13:09:35.098Z,2.77
2018-11-06T13:12:02.698Z,4.00
2018-11-06T13:14:30.190Z,3.53
2018-11-06T13:16:57.817Z,2.20
2018-11-06T13:19:25.316Z,2.30
2018-11-06T13:21:52.922Z,2.00
2018-11-06T13:24:20.425Z,3.40
2018-11-06T13:26:48.062Z,1.63
2018-11-06T13:29:15.671Z,1.80
2018-11-06T13:31:43.188Z,2.03
2018-11-06T13:34:10.693Z,3.47
2018-11-06T13:36:38.206Z,2.07
2018-11-06T13:39:07.998Z,4.53
2018-11-06T13:41:35.519Z,2.40
2018-11-06T13:44:03.167Z,3.67
2018-11-06T13:46:30.573Z,3.40
2018-11-06T13:48:58.313Z,3.70
2018-11-06T13:51:25.828Z,3.73
2018-11-06T13:53:53.361Z,2.33
2018-11-06T13:56:20.951Z,2.57
2018-11-06T13:58:48.713Z,2.67
2018-11-06T14:01:16.209Z,2.07
2018-11-06T14:03:43.721Z,2.40
2018-11-06T14:06:11.246Z,2.23
2018-11-06T14:08:38.906Z,3.33
2018-11-06T14:11:06.417Z,2.83
2018-11-06T14:13:33.904Z,2.23
2018-11-06T14:16:01.504Z,2.77
2018-11-06T14:18:29.227Z,3.47
2018-11-06T14:20:56.826Z,2.77
2018-11-06T14:23:24.418Z,3.00
2018-11-06T14:25:52.018Z,2.23
2018-11-06T14:28:19.651Z,1.80
2018-11-06T14:30:47.161Z,2.37
2018-11-06T14:33:14.661Z,2.10
2018-11-06T14:35:42.194Z,2.30
2018-11-06T14:38:09.968Z,2.13
2018-11-06T14:40:37.570Z,2.23
2018-11-06T14:43:05.137Z,2.37
2018-11-06T14:45:32.715Z,2.43
2018-11-06T14:48:00.351Z,2.10
2018-11-06T14:50:27.781Z,2.63
2018-11-06T14:52:55.309Z,2.87
2018-11-06T14:55:22.918Z,2.63
2018-11-06T14:57:50.469Z,3.10
2018-11-06T15:00:19.174Z,2.43
2018-11-06T15:02:48.901Z,2.37
2018-11-06T15:05:17.238Z,2.47
2018-11-06T15:07:44.834Z,5.73
2018-11-06T15:10:12.678Z,2.97
2018-11-06T15:12:40.197Z,3.13
2018-11-06T15:15:08.550Z,2.33
2018-11-06T15:17:36.161Z,2.20
2018-11-06T15:20:04.148Z,3.40
2018-11-06T15:22:31.658Z,2.30
2018-11-06T15:24:59.151Z,3.70
2018-11-06T15:27:26.637Z,3.27
2018-11-06T15:29:54.247Z,4.83
2018-11-06T15:32:21.867Z,5.23
2018-11-06T15:34:49.354Z,3.47
2018-11-06T15:37:16.866Z,5.20
2018-11-06T15:39:44.370Z,4.97
2018-11-06T15:42:11.952Z,2.80
2018-11-06T15:44:39.483Z,4.53
2018-11-06T15:47:07.001Z,4.77
2018-11-06T15:49:34.586Z,6.33
2018-11-06T15:52:02.095Z,3.93
2018-11-06T15:54:29.603Z,2.90
2018-11-06T15:56:57.150Z,3.40
2018-11-06T15:59:24.668Z,2.73
2018-11-06T16:01:52.161Z,4.47
2018-11-06T16:04:19.774Z,4.50
2018-11-06T16:06:47.366Z,4.57
2018-11-06T16:09:14.866Z,3.17
2018-11-06T16:11:42.358Z,2.93
2018-11-06T16:14:09.877Z,3.80
2018-11-06T16:16:37.481Z,4.20
2018-11-06T16:19:05.126Z,2.53
2018-11-06T16:21:32.665Z,4.57
2018-11-06T16:24:00.152Z,3.70
2018-11-06T16:26:27.753Z,3.13
2018-11-06T16:28:55.342Z,3.73
2018-11-06T16:31:22.869Z,3.90
2018-11-06T16:33:50.393Z,2.43
2018-11-06T16:36:17.881Z,6.43
2018-11-06T16:38:45.379Z,2.80
2018-11-06T16:41:12.910Z,2.77
2018-11-06T16:43:40.425Z,2.90
2018-11-06T16:46:08.010Z,3.27
2018-11-06T16:48:35.608Z,3.50
2018-11-06T16:51:03.154Z,4.17
2018-11-06T16:53:30.646Z,4.03
2018-11-06T16:55:58.266Z,4.37
2018-11-06T16:58:25.773Z,4.43
2018-11-06T17:00:53.430Z,4.73
2018-11-06T17:03:20.914Z,4.50
2018-11-06T17:05:48.547Z,6.13
2018-11-06T17:08:16.159Z,3.23
2018-11-06T17:10:43.670Z,3.80
2018-11-06T17:13:11.229Z,3.07
2018-11-06T17:15:38.826Z,3.13
2018-11-06T17:18:06.442Z,3.70
2018-11-06T17:20:34.030Z,3.27
2018-11-06T17:23:01.533Z,3.93
2018-11-06T17:25:29.153Z,6.53
2018-11-06T17:27:56.695Z,3.37
2018-11-06T17:30:24.227Z,3.37
2018-11-06T17:32:51.734Z,3.50
2018-11-06T17:35:20.118Z,3.20
2018-11-06T17:37:47.730Z,3.67
2018-11-06T17:40:16.662Z,3.77
2018-11-06T17:42:44.406Z,3.23
2018-11-06T17:45:18.251Z,3.30
2018-11-06T17:47:45.774Z,5.07
2018-11-06T17:50:14.258Z,5.60
2018-11-06T17:52:41.781Z,4.43
2018-11-06T17:55:10.945Z,4.60
2018-11-06T17:57:38.590Z,13.57
2018-11-06T18:00:08.990Z,7.33
2018-11-06T18:02:36.669Z,7.43
2018-11-06T18:05:04.184Z,6.30
2018-11-06T18:07:31.698Z,7.30
2018-11-06T18:09:59.205Z,4.60
2018-11-06T18:12:26.729Z,4.80
2018-11-06T18:14:54.322Z,20.57
2018-11-06T18:17:21.872Z,19.90
2018-11-06T18:19:49.338Z,13.50
2018-11-06T18:22:16.833Z,7.70
2018-11-06T18:24:44.384Z,6.00
2018-11-06T18:27:11.967Z,4.90
2018-11-06T18:29:39.686Z,4.30
2018-11-06T18:32:07.236Z,3.92
2018-11-06T18:34:34.818Z,6.63
2018-11-06T18:37:02.330Z,7.80
2018-11-06T18:39:29.958Z,4.63
2018-11-06T18:41:57.454Z,3.20
2018-11-06T18:44:25.042Z,3.53
2018-11-06T18:46:52.546Z,4.00
2018-11-06T18:49:20.062Z,4.43
2018-11-06T18:51:47.556Z,5.70
2018-11-06T18:54:15.158Z,3.97
2018-11-06T18:56:42.702Z,3.43
2018-11-06T18:59:10.202Z,5.27
2018-11-06T19:01:37.732Z,5.00
2018-11-06T19:04:05.686Z,4.73
2018-11-06T19:06:33.197Z,3.30
2018-11-06T19:09:00.902Z,3.87
2018-11-06T19:11:28.417Z,3.73
2018-11-06T19:13:55.922Z,3.73
2018-11-06T19:16:23.627Z,6.45
2018-11-06T19:18:51.181Z,4.60
2018-11-06T19:21:18.721Z,4.30
2018-11-06T19:23:46.238Z,2.93
2018-11-06T19:26:13.730Z,3.87
2018-11-06T19:28:41.377Z,4.13
2018-11-06T19:31:08.977Z,4.90
2018-11-06T19:33:36.506Z,3.50
2018-11-06T19:36:04.213Z,5.15
2018-11-06T19:38:31.822Z,3.87
2018-11-06T19:40:59.355Z,3.83
2018-11-06T19:43:26.861Z,4.30
2018-11-06T19:45:54.362Z,5.03
2018-11-06T19:48:21.963Z,3.50
2018-11-06T19:50:49.458Z,3.97
2018-11-06T19:53:17.042Z,3.97
2018-11-06T19:55:44.529Z,4.20
2018-11-06T19:58:12.123Z,4.20
2018-11-06T20:00:39.646Z,7.27
2018-11-06T20:03:07.156Z,6.33
2018-11-06T20:05:34.818Z,4.53
2018-11-06T20:08:02.306Z,4.27
2018-11-06T20:10:29.849Z,4.13
2018-11-06T20:12:57.572Z,4.33
2018-11-06T20:15:25.214Z,5.70
2018-11-06T20:17:52.746Z,4.30
2018-11-06T20:20:20.982Z,3.63
2018-11-06T20:22:48.590Z,4.80
2018-11-06T20:25:16.182Z,3.33
2018-11-06T20:27:43.982Z,4.57
2018-11-06T20:30:13.034Z,3.60
2018-11-06T20:32:40.793Z,4.37
2018-11-06T20:35:09.206Z,3.47
2018-11-06T20:37:37.152Z,3.70
2018-11-06T20:40:05.839Z,2.90
2018-11-06T20:42:33.437Z,3.33
2018-11-06T20:45:00.962Z,4.40
2018-11-06T20:47:28.813Z,3.87
2018-11-06T20:49:56.393Z,4.03
2018-11-06T20:52:24.071Z,3.13
2018-11-06T20:54:52.078Z,3.43
2018-11-06T20:57:20.124Z,4.23
2018-11-06T20:59:47.751Z,5.47
2018-11-06T21:02:15.368Z,4.20
2018-11-06T21:04:42.941Z,4.27
2018-11-06T21:07:10.598Z,3.80
2018-11-06T21:09:38.115Z,4.93
2018-11-06T21:12:05.651Z,4.23
2018-11-06T21:14:33.198Z,3.63
2018-11-06T21:17:00.705Z,3.30
2018-11-06T21:19:28.271Z,3.53
2018-11-06T21:21:55.762Z,3.17
2018-11-06T21:24:23.299Z,3.27
2018-11-06T21:26:50.910Z,3.20
2018-11-06T21:29:18.428Z,3.17
2018-11-06T21:31:46.031Z,3.13
2018-11-06T21:34:13.689Z,5.90
2018-11-06T21:36:41.299Z,4.70
2018-11-06T21:39:09.578Z,3.00
2018-11-06T21:41:37.103Z,3.67
2018-11-06T21:44:04.622Z,3.17
2018-11-06T21:46:32.126Z,2.93
2018-11-06T21:49:00.166Z,2.80
2018-11-06T21:51:27.709Z,3.57
2018-11-06T21:53:55.286Z,3.23
2018-11-06T21:56:22.922Z,2.93
2018-11-06T21:58:50.699Z,2.60
2018-11-06T22:01:18.134Z,3.07
2018-11-06T22:03:45.729Z,3.23
2018-11-06T22:06:13.326Z,3.70
2018-11-06T22:08:40.871Z,3.60
2018-11-06T22:11:08.411Z,2.83
2018-11-06T22:13:36.023Z,4.40
2018-11-06T22:16:03.698Z,4.20
2018-11-06T22:18:31.245Z,3.83
2018-11-06T22:20:58.767Z,4.37
2018-11-06T22:23:26.364Z,4.03
2018-11-06T22:25:53.982Z,3.93
2018-11-06T22:28:21.582Z,4.10
2018-11-06T22:30:49.093Z,3.33
2018-11-06T22:33:16.699Z,4.57
2018-11-06T22:35:44.201Z,3.30
2018-11-06T22:38:11.779Z,3.80
2018-11-06T22:40:39.315Z,3.97
2018-11-06T22:43:06.832Z,3.87
2018-11-06T22:45:34.426Z,4.03
2018-11-06T22:48:01.948Z,4.20
2018-11-06T22:50:29.579Z,4.63
2018-11-06T22:52:57.170Z,3.83
2018-11-06T22:55:24.742Z,4.77
2018-11-06T22:57:52.322Z,4.00
2018-11-06T23:00:25.448Z,4.47
2018-11-06T23:02:53.058Z,3.60
2018-11-06T23:05:20.643Z,3.60
2018-11-06T23:07:53.845Z,3.93
2018-11-06T23:10:21.360Z,3.90
2018-11-06T23:12:49.013Z,3.63
2018-11-06T23:15:16.609Z,3.23
2018-11-06T23:17:44.243Z,3.37
2018-11-06T23:20:11.801Z,3.17
2018-11-06T23:22:39.464Z,3.67
2018-11-06T23:25:07.218Z,3.57
2018-11-06T23:27:34.870Z,3.00
2018-11-06T23:30:02.530Z,3.13
2018-11-06T23:32:30.048Z,2.90
2018-11-06T23:34:57.669Z,4.13
2018-11-06T23:37:25.197Z,3.07
2018-11-06T23:39:52.894Z,2.87
2018-11-06T23:42:20.533Z,2.47
2018-11-06T23:44:48.127Z,3.23
2018-11-06T23:47:15.693Z,2.60
2018-11-06T23:49:43.342Z,2.80
2018-11-06T23:52:10.857Z,2.90
2018-11-06T23:54:38.483Z,2.23
2018-11-06T23:57:06.082Z,3.67
2018-11-06T23:59:33.585Z,2.83
